Time;durP1;ratioP1;P1;durP2;ratioP2;P2;SDS_P1;SDS_P2;PMS_P1;PMS_P2;Temp;Humidity;BMP_temperature;BMP_pressure;BME280_temperature;BME280_humidity;BME280_pressure;Samples;Min_cycle;Max_cycle;Signal;HPM_P1;HPM_P2
2023/01/14 00:03:10;;;;;;;14.32;8.45;;;;;;;;;;8395469;28;20552;-88
2023/01/14 00:07:12;;;;;;;17.00;8.35;;;;;;;;;;8408412;28;20044;-87
2023/01/14 00:11:16;;;;;;;9.75;6.63;;;;;;;;;;8408327;28;20044;-89
2023/01/14 00:15:20;;;;;;;19.45;8.48;;;;;;;;;;8395145;28;20072;-89
2023/01/14 00:19:24;;;;;;;14.02;7.07;;;;;;;;;;8402443;28;20232;-88
2023/01/14 00:23:27;;;;;;;17.88;8.73;;;;;;;;;;8401469;28;20101;-89
2023/01/14 00:27:30;;;;;;;13.00;6.70;;;;;;;;;;8407685;28;20047;-89
2023/01/14 00:31:35;;;;;;;15.07;7.88;;;;;;;;;;8394869;28;20193;-87
2023/01/14 00:35:37;;;;;;;11.73;6.43;;;;;;;;;;8395206;28;20411;-89
2023/01/14 00:39:40;;;;;;;15.55;8.48;;;;;;;;;;8407360;28;20044;-88
2023/01/14 00:43:45;;;;;;;11.75;6.70;;;;;;;;;;8410715;28;20106;-89
2023/01/14 00:47:52;;;;;;;13.05;6.95;;;;;;;;;;8421601;28;20040;-89
2023/01/14 00:51:55;;;;;;;13.90;6.82;;;;;;;;;;8394976;28;20399;-89
2023/01/14 00:55:58;;;;;;;13.50;6.75;;;;;;;;;;8395096;28;20048;-88
2023/01/14 01:00:01;;;;;;;16.70;7.40;;;;;;;;;;8394955;28;20044;-89
2023/01/14 01:04:05;;;;;;;13.98;7.57;;;;;;;;;;8411254;28;20049;-88
2023/01/14 01:08:12;;;;;;;15.80;7.03;;;;;;;;;;8411929;28;20040;-88
2023/01/14 01:12:15;;;;;;;16.20;7.43;;;;;;;;;;8407473;28;20121;-88
2023/01/14 01:16:23;;;;;;;12.75;7.32;;;;;;;;;;8411502;28;20119;-88
2023/01/14 01:20:27;;;;;;;16.27;7.97;;;;;;;;;;8407574;28;20490;-88
2023/01/14 01:24:30;;;;;;;16.92;8.10;;;;;;;;;;8408107;28;20083;-88
2023/01/14 01:28:33;;;;;;;19.58;9.45;;;;;;;;;;8405058;28;20047;-88
2023/01/14 01:32:36;;;;;;;17.02;9.10;;;;;;;;;;8414744;28;20377;-87
2023/01/14 01:36:41;;;;;;;18.40;9.10;;;;;;;;;;8411768;28;20087;-87
2023/01/14 01:40:44;;;;;;;18.67;9.90;;;;;;;;;;8404314;28;20126;-88
2023/01/14 01:45:26;;;;;;;16.92;8.65;;;;;;;;;;8400140;28;20123;-89
2023/01/14 01:49:34;;;;;;;18.40;9.73;;;;;;;;;;8358589;28;20077;-90
2023/01/14 01:53:43;;;;;;;20.10;9.50;;;;;;;;;;8406150;28;20043;-89
2023/01/14 01:57:45;;;;;;;19.13;10.20;;;;;;;;;;8405459;28;20048;-89
2023/01/14 02:01:50;;;;;;;17.40;8.05;;;;;;;;;;8409261;28;20039;-89
2023/01/14 02:05:54;;;;;;;20.83;8.43;;;;;;;;;;8417280;28;20052;-88
2023/01/14 02:10:01;;;;;;;15.27;8.73;;;;;;;;;;8423867;28;20045;-89
2023/01/14 02:14:15;;;;;;;18.65;8.80;;;;;;;;;;8403262;28;20075;-88
2023/01/14 02:18:35;;;;;;;16.83;8.75;;;;;;;;;;8408452;28;20052;-88
2023/01/14 02:23:09;;;;;;;22.80;9.48;;;;;;;;;;8421571;28;20036;-89
2023/01/14 02:27:37;;;;;;;17.45;8.93;;;;;;;;;;8379222;28;20415;-90
2023/01/14 02:31:48;;;;;;;21.10;9.73;;;;;;;;;;8409663;28;20060;-89
2023/01/14 02:35:55;;;;;;;20.02;10.63;;;;;;;;;;8416197;28;20082;-89
2023/01/14 02:40:03;;;;;;;19.70;10.45;;;;;;;;;;8415293;28;20048;-90
2023/01/14 02:44:10;;;;;;;20.75;10.02;;;;;;;;;;8399158;28;20040;-89
2023/01/14 02:48:15;;;;;;;15.68;8.82;;;;;;;;;;8408689;28;20093;-89
2023/01/14 02:52:19;;;;;;;19.58;10.30;;;;;;;;;;8422172;28;20096;-90
2023/01/14 02:56:22;;;;;;;21.10;10.30;;;;;;;;;;8406459;28;20047;-88
2023/01/14 03:00:37;;;;;;;19.27;10.02;;;;;;;;;;8427428;28;20584;-90
2023/01/14 03:04:56;;;;;;;22.42;9.95;;;;;;;;;;8420007;28;20139;-89
2023/01/14 03:09:04;;;;;;;22.10;11.15;;;;;;;;;;8407448;28;20048;-90
2023/01/14 03:13:15;;;;;;;19.80;9.90;;;;;;;;;;8418372;28;20047;-87
2023/01/14 03:17:27;;;;;;;28.20;10.87;;;;;;;;;;8421801;28;20039;-88
2023/01/14 03:21:34;;;;;;;;;;;;;;;;;;8429414;28;20101;-89
2023/01/14 03:25:41;;;;;;;18.20;9.15;;;;;;;;;;8423812;28;20467;-88
2023/01/14 03:29:47;;;;;;;24.67;11.07;;;;;;;;;;8395103;28;20064;-89
2023/01/14 03:33:52;;;;;;;17.40;9.32;;;;;;;;;;8409954;28;20578;-89
2023/01/14 03:38:00;;;;;;;22.38;10.75;;;;;;;;;;8396051;28;20167;-87
2023/01/14 03:42:22;;;;;;;22.95;9.93;;;;;;;;;;8414308;28;20040;-88
2023/01/14 03:46:25;;;;;;;26.63;10.70;;;;;;;;;;8428633;28;20131;-89
2023/01/14 03:50:36;;;;;;;20.92;9.75;;;;;;;;;;8395924;28;20488;-89
2023/01/14 03:54:47;;;;;;;19.80;10.02;;;;;;;;;;8422755;28;20040;-89
2023/01/14 03:58:57;;;;;;;20.70;9.98;;;;;;;;;;8396015;28;20115;-88
2023/01/14 04:03:02;;;;;;;19.98;9.80;;;;;;;;;;8395583;28;20121;-89
2023/01/14 04:07:04;;;;;;;17.13;9.25;;;;;;;;;;8421930;28;20051;-88
2023/01/14 04:11:10;;;;;;;18.40;8.45;;;;;;;;;;8422146;28;20094;-88
2023/01/14 04:19:32;;;;;;;18.40;10.05;;;;;;;;;;8408896;28;20041;-88
2023/01/14 04:23:35;;;;;;;19.27;9.07;;;;;;;;;;8408905;28;20136;-89
2023/01/14 04:27:40;;;;;;;24.13;11.85;;;;;;;;;;8408520;28;20483;-89
2023/01/14 04:31:43;;;;;;;15.55;9.43;;;;;;;;;;8394843;28;20128;-89
2023/01/14 04:35:46;;;;;;;18.73;10.23;;;;;;;;;;8417358;28;20040;-88
2023/01/14 04:39:50;;;;;;;19.45;8.60;;;;;;;;;;8414616;28;20052;-88
2023/01/14 04:43:54;;;;;;;19.08;9.63;;;;;;;;;;8411490;28;20141;-89
2023/01/14 04:47:57;;;;;;;17.58;8.98;;;;;;;;;;8397307;28;20052;-89
2023/01/14 04:52:00;;;;;;;17.77;8.43;;;;;;;;;;8423708;28;20380;-89
2023/01/14 04:56:03;;;;;;;18.67;9.07;;;;;;;;;;8405404;28;20048;-89
2023/01/14 05:00:09;;;;;;;17.60;8.30;;;;;;;;;;8401117;28;20502;-88
2023/01/14 05:04:12;;;;;;;21.10;9.70;;;;;;;;;;8416655;28;20567;-88
2023/01/14 05:08:16;;;;;;;19.77;10.15;;;;;;;;;;8411499;28;20044;-89
2023/01/14 05:12:18;;;;;;;22.48;11.23;;;;;;;;;;8430097;28;20621;-88
2023/01/14 05:16:24;;;;;;;23.75;11.77;;;;;;;;;;8434010;28;20050;-88
2023/01/14 05:20:28;;;;;;;20.88;10.50;;;;;;;;;;8403669;28;20098;-89
2023/01/14 05:24:31;;;;;;;21.45;11.80;;;;;;;;;;8400325;28;20146;-88
2023/01/14 05:28:34;;;;;;;18.20;8.52;;;;;;;;;;8426769;28;20066;-89
2023/01/14 05:32:38;;;;;;;21.05;11.07;;;;;;;;;;8423950;28;20502;-89
2023/01/14 05:36:41;;;;;;;26.20;14.20;;;;;;;;;;8415958;28;20047;-89
2023/01/14 05:40:44;;;;;;;18.00;10.38;;;;;;;;;;8399948;28;20123;-89
2023/01/14 05:49:09;;;;;;;24.52;10.65;;;;;;;;;;8413174;28;20840;-89
2023/01/14 05:53:12;;;;;;;20.17;9.15;;;;;;;;;;8398485;28;20412;-89
2023/01/14 05:57:15;;;;;;;18.77;10.38;;;;;;;;;;8412915;28;20071;-89
2023/01/14 06:09:59;;;;;;;20.15;10.98;;;;;;;;;;8402188;28;20665;-89
2023/01/14 06:14:03;;;;;;;18.20;10.25;;;;;;;;;;8416293;28;20040;-89
2023/01/14 06:18:20;;;;;;;23.75;11.70;;;;;;;;;;8409876;28;20040;-88
2023/01/14 06:22:25;;;;;;;17.77;8.70;;;;;;;;;;8411698;28;20043;-89
2023/01/14 06:26:28;;;;;;;19.83;10.00;;;;;;;;;;8397940;28;20041;-88
2023/01/14 06:30:31;;;;;;;21.38;10.90;;;;;;;;;;8398047;28;20063;-89
2023/01/14 06:34:34;;;;;;;26.13;11.82;;;;;;;;;;8397923;28;20067;-88
2023/01/14 06:38:39;;;;;;;19.10;8.35;;;;;;;;;;8397874;28;20133;-88
2023/01/14 06:42:42;;;;;;;15.38;8.35;;;;;;;;;;8397949;28;20040;-88
2023/01/14 06:46:45;;;;;;;21.83;11.23;;;;;;;;;;8397312;28;20492;-88
2023/01/14 06:50:49;;;;;;;20.33;6.95;;;;;;;;;;8397413;28;20048;-90
2023/01/14 06:54:53;;;;;;;20.75;11.18;;;;;;;;;;8423365;28;20476;-89
2023/01/14 06:58:57;;;;;;;24.27;12.55;;;;;;;;;;8418483;28;20497;-89
2023/01/14 07:03:00;;;;;;;24.52;11.55;;;;;;;;;;8424558;28;20044;-89
2023/01/14 07:07:03;;;;;;;14.52;8.02;;;;;;;;;;8426378;28;20477;-88
2023/01/14 07:11:08;;;;;;;15.20;7.18;;;;;;;;;;8414565;28;20488;-89
2023/01/14 07:15:11;;;;;;;10.20;5.65;;;;;;;;;;8414635;28;20032;-88
2023/01/14 07:19:14;;;;;;;11.75;7.15;;;;;;;;;;8415093;28;20127;-89
2023/01/14 07:23:17;;;;;;;16.38;8.50;;;;;;;;;;8411598;28;20048;-88
2023/01/14 07:27:22;;;;;;;14.30;8.75;;;;;;;;;;8405342;28;20033;-88
2023/01/14 07:31:25;;;;;;;11.35;6.05;;;;;;;;;;8409339;28;20044;-89
2023/01/14 07:35:28;;;;;;;14.10;6.60;;;;;;;;;;8409386;28;20127;-89
2023/01/14 07:39:31;;;;;;;9.60;4.88;;;;;;;;;;8408288;28;20059;-89
2023/01/14 07:43:35;;;;;;;11.55;4.65;;;;;;;;;;8409702;28;20048;-89
2023/01/14 07:47:39;;;;;;;11.52;5.63;;;;;;;;;;8413614;28;20127;-88
2023/01/14 07:51:42;;;;;;;11.73;5.25;;;;;;;;;;8408922;28;20047;-88
2023/01/14 07:55:44;;;;;;;9.98;5.25;;;;;;;;;;8395555;28;20135;-88
2023/01/14 07:59:49;;;;;;;9.75;5.32;;;;;;;;;;8395757;28;20043;-89
2023/01/14 08:03:52;;;;;;;8.63;4.22;;;;;;;;;;8422231;28;20097;-88
2023/01/14 08:07:56;;;;;;;8.48;5.15;;;;;;;;;;8393433;28;20052;-89
2023/01/14 08:11:59;;;;;;;9.73;5.10;;;;;;;;;;8405453;28;20173;-88
2023/01/14 08:16:09;;;;;;;8.73;4.38;;;;;;;;;;8404439;28;20114;-88
2023/01/14 08:20:13;;;;;;;8.15;4.13;;;;;;;;;;8407584;28;20044;-88
2023/01/14 08:24:16;;;;;;;6.95;4.15;;;;;;;;;;8396931;28;20567;-88
2023/01/14 08:28:19;;;;;;;9.52;4.93;;;;;;;;;;8409807;28;20062;-89
2023/01/14 08:32:23;;;;;;;11.27;5.20;;;;;;;;;;8380776;28;20080;-88
2023/01/14 08:36:27;;;;;;;13.18;5.78;;;;;;;;;;8370161;28;20041;-87
2023/01/14 08:40:30;;;;;;;14.05;6.30;;;;;;;;;;8363135;28;20048;-88
2023/01/14 08:44:34;;;;;;;17.02;7.40;;;;;;;;;;8361343;28;20072;-88
2023/01/14 08:48:38;;;;;;;14.80;8.20;;;;;;;;;;8361335;28;20471;-87
2023/01/14 08:52:41;;;;;;;16.35;9.45;;;;;;;;;;8361404;28;20045;-86
2023/01/14 08:56:44;;;;;;;15.30;6.97;;;;;;;;;;8371423;28;20064;-86
2023/01/14 09:00:46;;;;;;;10.32;5.88;;;;;;;;;;8371165;28;20052;-86
2023/01/14 09:04:51;;;;;;;14.20;5.38;;;;;;;;;;8383795;28;20144;-87
2023/01/14 09:17:35;;;;;;;10.13;5.07;;;;;;;;;;8377904;28;20491;-88
2023/01/14 09:21:40;;;;;;;8.32;4.88;;;;;;;;;;8376728;28;20036;-86
2023/01/14 09:25:43;;;;;;;11.68;5.90;;;;;;;;;;8375889;28;20553;-87
2023/01/14 09:29:46;;;;;;;11.23;5.47;;;;;;;;;;8393973;28;20052;-85
2023/01/14 09:33:49;;;;;;;8.70;4.07;;;;;;;;;;8420440;28;20051;-86
2023/01/14 09:37:54;;;;;;;10.65;5.15;;;;;;;;;;8418431;28;20044;-86
2023/01/14 09:42:00;;;;;;;7.90;5.03;;;;;;;;;;8417898;28;20608;-85
2023/01/14 09:46:03;;;;;;;9.07;4.75;;;;;;;;;;8422969;28;20178;-86
2023/01/14 09:50:13;;;;;;;14.13;5.22;;;;;;;;;;8419307;28;20051;-87
2023/01/14 09:54:27;;;;;;;12.95;5.85;;;;;;;;;;8398655;28;20048;-86
2023/01/14 09:58:36;;;;;;;8.63;4.75;;;;;;;;;;8412232;28;20461;-86
2023/01/14 10:02:45;;;;;;;10.52;4.88;;;;;;;;;;8399439;28;20051;-86
2023/01/14 10:06:51;;;;;;;11.18;4.75;;;;;;;;;;8409131;28;20433;-87
2023/01/14 10:11:02;;;;;;;11.30;5.65;;;;;;;;;;8420738;28;20099;-88
2023/01/14 10:15:31;;;;;;;8.20;4.77;;;;;;;;;;8422778;28;20050;-87
2023/01/14 10:19:41;;;;;;;10.98;5.43;;;;;;;;;;8421663;28;20515;-85
2023/01/14 10:23:44;;;;;;;12.43;4.80;;;;;;;;;;8427175;28;20752;-87
2023/01/14 10:27:52;;;;;;;11.02;6.15;;;;;;;;;;8424176;28;20508;-86
2023/01/14 10:31:59;;;;;;;10.30;4.47;;;;;;;;;;8395264;28;20450;-86
2023/01/14 10:36:07;;;;;;;6.20;3.00;;;;;;;;;;8419620;28;20440;-87
2023/01/14 10:40:21;;;;;;;12.45;6.72;;;;;;;;;;8417884;28;20497;-86
2023/01/14 10:44:29;;;;;;;10.38;3.85;;;;;;;;;;8416188;28;20698;-87
2023/01/14 10:48:54;;;;;;;7.95;3.78;;;;;;;;;;8409048;28;20487;-87
2023/01/14 10:53:15;;;;;;;10.15;5.55;;;;;;;;;;8403319;28;20554;-86
2023/01/14 10:57:18;;;;;;;11.43;5.57;;;;;;;;;;8414020;28;20047;-87
2023/01/14 11:01:23;;;;;;;11.23;4.45;;;;;;;;;;8412803;28;20044;-87
2023/01/14 11:05:28;;;;;;;7.93;4.00;;;;;;;;;;8415053;28;20487;-86
2023/01/14 11:09:31;;;;;;;11.43;5.05;;;;;;;;;;8421665;28;20076;-87
2023/01/14 11:13:41;;;;;;;10.77;5.80;;;;;;;;;;8415807;28;20070;-87
2023/01/14 11:17:47;;;;;;;9.30;4.18;;;;;;;;;;8398201;28;20045;-88
2023/01/14 11:21:52;;;;;;;8.77;4.45;;;;;;;;;;8424624;28;20064;-87
2023/01/14 11:25:55;;;;;;;8.43;4.00;;;;;;;;;;8404222;28;20093;-87
2023/01/14 11:30:11;;;;;;;9.60;3.53;;;;;;;;;;8412635;28;20106;-86
2023/01/14 11:34:27;;;;;;;6.72;2.88;;;;;;;;;;8419624;28;20047;-87
2023/01/14 11:38:33;;;;;;;7.72;3.28;;;;;;;;;;8414203;28;20052;-87
2023/01/14 11:42:38;;;;;;;8.38;3.53;;;;;;;;;;8409359;28;20734;-87
2023/01/14 11:46:44;;;;;;;7.72;4.22;;;;;;;;;;8394446;28;20074;-87
2023/01/14 11:50:57;;;;;;;8.13;3.80;;;;;;;;;;8393834;28;20480;-87
2023/01/14 11:55:03;;;;;;;8.07;3.83;;;;;;;;;;8409119;28;20135;-86
2023/01/14 11:59:17;;;;;;;9.82;3.58;;;;;;;;;;8422427;28;20044;-86
2023/01/14 12:03:32;;;;;;;9.35;4.30;;;;;;;;;;8408068;28;20067;-86
2023/01/14 12:07:38;;;;;;;9.85;4.47;;;;;;;;;;8408137;28;20128;-87
2023/01/14 12:11:50;;;;;;;7.45;3.00;;;;;;;;;;8399562;28;20059;-87
2023/01/14 12:20:19;;;;;;;11.60;5.05;;;;;;;;;;8415263;28;19974;-87
2023/01/14 12:24:28;;;;;;;8.35;3.08;;;;;;;;;;8405379;28;20045;-87
2023/01/14 12:28:35;;;;;;;7.30;3.67;;;;;;;;;;8394868;28;20139;-86
2023/01/14 12:32:41;;;;;;;9.95;3.70;;;;;;;;;;8408182;28;20079;-87
2023/01/14 12:36:50;;;;;;;9.88;3.25;;;;;;;;;;8407503;28;20048;-87
2023/01/14 12:49:47;;;;;;;8.35;4.20;;;;;;;;;;8395530;28;20068;-87
2023/01/14 12:53:53;;;;;;;8.85;3.75;;;;;;;;;;8400133;28;20132;-86
2023/01/14 12:57:59;;;;;;;9.98;4.25;;;;;;;;;;8409584;28;20044;-87
2023/01/14 13:02:06;;;;;;;11.90;4.95;;;;;;;;;;8407303;28;20969;-86
2023/01/14 13:06:11;;;;;;;11.90;4.15;;;;;;;;;;8416818;28;20076;-86
2023/01/14 13:10:28;;;;;;;9.48;4.22;;;;;;;;;;8416517;28;20048;-86
2023/01/14 13:14:38;;;;;;;10.15;4.00;;;;;;;;;;8416676;28;20551;-87
2023/01/14 13:18:45;;;;;;;11.50;4.20;;;;;;;;;;8410839;28;20438;-87
2023/01/14 13:22:50;;;;;;;13.90;4.95;;;;;;;;;;8400099;28;20439;-87
2023/01/14 13:26:56;;;;;;;8.15;3.70;;;;;;;;;;8398842;28;20404;-86
2023/01/14 13:31:24;;;;;;;6.80;3.38;;;;;;;;;;8400041;28;20139;-86
2023/01/14 13:35:28;;;;;;;7.13;3.33;;;;;;;;;;8413246;28;20068;-86
2023/01/14 13:39:31;;;;;;;6.57;2.83;;;;;;;;;;8399919;28;20052;-87
2023/01/14 13:43:37;;;;;;;8.48;3.33;;;;;;;;;;8419440;28;20039;-86
2023/01/14 13:47:42;;;;;;;10.95;4.70;;;;;;;;;;8419556;28;20049;-86
2023/01/14 13:51:49;;;;;;;17.05;7.07;;;;;;;;;;8400245;28;20120;-86
2023/01/14 13:55:54;;;;;;;15.68;5.55;;;;;;;;;;8400212;28;20048;-86
2023/01/14 14:00:00;;;;;;;9.25;3.05;;;;;;;;;;8411517;28;20048;-86
2023/01/14 14:04:05;;;;;;;4.47;2.85;;;;;;;;;;8426419;28;20074;-86
2023/01/14 14:08:27;;;;;;;11.15;5.82;;;;;;;;;;8420848;28;20043;-86
2023/01/14 14:16:55;;;;;;;6.95;3.83;;;;;;;;;;8398285;28;20044;-85
2023/01/14 14:21:00;;;;;;;10.27;4.57;;;;;;;;;;8398901;28;20518;-87
2023/01/14 14:25:06;;;;;;;8.43;3.67;;;;;;;;;;8425308;28;20040;-87
2023/01/14 14:29:14;;;;;;;7.97;3.22;;;;;;;;;;8405892;28;20507;-86
2023/01/14 14:33:35;;;;;;;7.75;3.30;;;;;;;;;;8412410;28;20551;-86
2023/01/14 14:37:40;;;;;;;5.60;2.90;;;;;;;;;;8410706;28;20044;-87
2023/01/14 14:41:46;;;;;;;9.52;3.45;;;;;;;;;;8417765;28;20062;-86
2023/01/14 14:46:00;;;;;;;6.85;3.60;;;;;;;;;;8403492;28;20036;-85
2023/01/14 14:50:14;;;;;;;9.45;4.13;;;;;;;;;;8414042;28;20044;-86
2023/01/14 14:54:30;;;;;;;6.75;3.83;;;;;;;;;;8411068;28;20535;-87
2023/01/14 14:58:33;;;;;;;6.10;3.83;;;;;;;;;;8416926;28;20139;-88
2023/01/14 15:02:40;;;;;;;20.63;12.48;;;;;;;;;;8416389;28;20052;-86
2023/01/14 15:06:43;;;;;;;28.20;9.10;;;;;;;;;;8421500;28;20116;-86
2023/01/14 15:10:49;;;;;;;26.08;8.05;;;;;;;;;;8424266;28;20100;-86
2023/01/14 15:14:57;;;;;;;10.38;4.18;;;;;;;;;;8412364;28;20519;-84
2023/01/14 15:19:01;;;;;;;9.15;3.70;;;;;;;;;;8409182;28;20100;-87
2023/01/14 15:23:05;;;;;;;7.28;3.50;;;;;;;;;;8404448;28;20068;-84
2023/01/14 15:27:16;;;;;;;11.45;5.28;;;;;;;;;;8423459;28;20044;-88
2023/01/14 15:31:20;;;;;;;;;;;;;;;;;;8417561;28;20149;-87
2023/01/14 15:35:27;;;;;;;8.23;4.65;;;;;;;;;;8417300;28;19963;-87
2023/01/14 15:39:31;;;;;;;39.72;19.17;;;;;;;;;;8401932;28;20072;-87
2023/01/14 15:43:38;;;;;;;17.42;8.30;;;;;;;;;;8401018;28;20044;-86
2023/01/14 15:47:41;;;;;;;21.85;10.88;;;;;;;;;;8422615;28;20050;-87
2023/01/14 15:51:47;;;;;;;37.00;18.63;;;;;;;;;;8423881;28;20051;-87
2023/01/14 15:56:11;;;;;;;20.13;11.77;;;;;;;;;;8423249;28;20086;-89
2023/01/14 16:00:24;;;;;;;26.70;15.00;;;;;;;;;;8419986;28;20471;-88
2023/01/14 16:04:29;;;;;;;24.10;12.60;;;;;;;;;;8419272;28;20464;-89
2023/01/14 16:08:32;;;;;;;28.90;12.68;;;;;;;;;;8418684;28;20047;-89
2023/01/14 16:12:35;;;;;;;22.10;9.65;;;;;;;;;;8420851;28;20044;-87
2023/01/14 16:16:39;;;;;;;32.45;12.65;;;;;;;;;;8421064;28;20448;-85
2023/01/14 16:20:43;;;;;;;27.40;13.80;;;;;;;;;;8410009;28;20535;-88
2023/01/14 16:24:46;;;;;;;39.25;16.30;;;;;;;;;;8415136;28;20051;-87
2023/01/14 16:28:49;;;;;;;33.55;12.85;;;;;;;;;;8423045;28;20134;-88
2023/01/14 16:32:53;;;;;;;36.25;17.65;;;;;;;;;;8423766;28;20047;-88
2023/01/14 16:36:56;;;;;;;49.92;28.90;;;;;;;;;;8422566;28;20094;-87
2023/01/14 16:40:59;;;;;;;54.20;25.70;;;;;;;;;;8422106;28;20067;-88
2023/01/14 16:45:02;;;;;;;94.07;44.85;;;;;;;;;;8418178;28;20048;-88
2023/01/14 16:49:07;;;;;;;41.83;22.27;;;;;;;;;;8403457;28;20091;-87
2023/01/14 16:53:14;;;;;;;57.53;35.17;;;;;;;;;;8422800;28;20052;-88
2023/01/14 16:57:17;;;;;;;37.50;20.45;;;;;;;;;;8401302;28;20036;-87
2023/01/14 17:01:21;;;;;;;21.48;9.95;;;;;;;;;;8401069;28;20079;-86
2023/01/14 17:05:26;;;;;;;21.23;11.25;;;;;;;;;;8413354;28;20124;-88
2023/01/14 17:09:29;;;;;;;30.70;13.93;;;;;;;;;;8408029;28;20083;-84
2023/01/14 17:13:32;;;;;;;40.13;18.60;;;;;;;;;;8423874;28;20444;-85
2023/01/14 17:17:36;;;;;;;65.03;29.33;;;;;;;;;;8422212;28;20054;-88
2023/01/14 17:21:40;;;;;;;54.28;26.08;;;;;;;;;;8408142;28;20082;-85
2023/01/14 17:25:43;;;;;;;54.45;25.35;;;;;;;;;;8410912;28;20412;-85
2023/01/14 17:29:47;;;;;;;103.78;42.05;;;;;;;;;;8384827;28;20583;-86
2023/01/14 17:33:53;;;;;;;101.72;37.70;;;;;;;;;;8417064;28;20520;-88
2023/01/14 17:37:58;;;;;;;249.23;94.65;;;;;;;;;;8415737;28;20454;-87
2023/01/14 17:42:13;;;;;;;174.38;86.10;;;;;;;;;;8418860;28;20040;-88
2023/01/14 17:46:17;;;;;;;120.65;44.17;;;;;;;;;;8417996;28;20403;-86
2023/01/14 17:50:20;;;;;;;110.65;45.70;;;;;;;;;;8414252;28;20517;-87
2023/01/14 17:54:25;;;;;;;113.03;54.35;;;;;;;;;;8413223;28;20059;-86
2023/01/14 17:58:30;;;;;;;110.40;56.63;;;;;;;;;;8418777;28;20549;-86
2023/01/14 18:02:34;;;;;;;53.28;31.45;;;;;;;;;;8422119;28;20487;-86
2023/01/14 18:06:38;;;;;;;44.65;25.00;;;;;;;;;;8428871;28;20543;-84
2023/01/14 18:10:43;;;;;;;109.90;57.00;;;;;;;;;;8403994;28;20127;-86
2023/01/14 18:14:47;;;;;;;82.70;38.17;;;;;;;;;;8413574;28;20040;-87
2023/01/14 18:18:50;;;;;;;57.05;25.50;;;;;;;;;;8401264;28;20086;-85
2023/01/14 18:22:59;;;;;;;80.05;42.30;;;;;;;;;;8399342;28;20047;-85
2023/01/14 18:27:08;;;;;;;69.03;38.78;;;;;;;;;;8401219;28;20044;-85
2023/01/14 18:31:11;;;;;;;42.75;20.20;;;;;;;;;;8418167;28;20052;-85
2023/01/14 18:35:15;;;;;;;30.40;15.05;;;;;;;;;;8420234;28;20063;-85
2023/01/14 18:39:18;;;;;;;8.02;5.43;;;;;;;;;;8419212;28;20044;-85
2023/01/14 18:43:23;;;;;;;27.77;13.02;;;;;;;;;;8426603;28;20143;-86
2023/01/14 18:47:26;;;;;;;20.05;10.50;;;;;;;;;;8419206;28;20411;-85
2023/01/14 18:51:31;;;;;;;24.30;12.95;;;;;;;;;;8423637;28;20056;-86
2023/01/14 18:55:36;;;;;;;24.70;12.63;;;;;;;;;;8409604;28;20162;-86
2023/01/14 18:59:40;;;;;;;11.02;4.60;;;;;;;;;;8421632;28;20123;-83
2023/01/14 19:03:45;;;;;;;25.50;11.65;;;;;;;;;;8414550;28;20067;-86
2023/01/14 19:07:48;;;;;;;27.17;13.98;;;;;;;;;;8403573;28;20037;-85
2023/01/14 19:12:05;;;;;;;39.65;17.52;;;;;;;;;;8408156;28;20508;-84
2023/01/14 19:16:11;;;;;;;28.35;13.80;;;;;;;;;;8417179;28;20040;-84
2023/01/14 19:20:15;;;;;;;29.23;11.70;;;;;;;;;;8416438;28;20060;-84
2023/01/14 19:24:19;;;;;;;20.08;11.05;;;;;;;;;;8419609;28;20040;-84
2023/01/14 19:28:23;;;;;;;30.77;14.45;;;;;;;;;;8417464;28;20040;-85
2023/01/14 19:32:27;;;;;;;26.33;11.18;;;;;;;;;;8406239;28;20052;-86
2023/01/14 19:36:31;;;;;;;16.98;9.82;;;;;;;;;;8411012;28;20049;-86
2023/01/14 19:40:35;;;;;;;27.17;11.35;;;;;;;;;;8407192;28;20047;-87
2023/01/14 19:44:39;;;;;;;19.45;10.43;;;;;;;;;;8424903;28;20043;-86
2023/01/14 19:48:45;;;;;;;23.45;11.48;;;;;;;;;;8403098;28;20085;-86
2023/01/14 19:52:49;;;;;;;23.05;11.05;;;;;;;;;;8408694;28;20131;-87
2023/01/14 19:56:52;;;;;;;19.10;8.60;;;;;;;;;;8408990;28;20060;-85
2023/01/14 20:01:03;;;;;;;24.52;10.90;;;;;;;;;;8401662;28;20484;-86
2023/01/14 20:05:09;;;;;;;23.58;9.68;;;;;;;;;;8394838;28;20051;-85
2023/01/14 20:09:14;;;;;;;20.58;9.40;;;;;;;;;;8411928;28;20047;-84
2023/01/14 20:13:17;;;;;;;38.42;18.15;;;;;;;;;;8404207;28;20056;-87
2023/01/14 20:17:21;;;;;;;23.05;11.13;;;;;;;;;;8398985;28;20062;-86
2023/01/14 20:21:28;;;;;;;29.17;12.95;;;;;;;;;;8428234;28;20503;-86
2023/01/14 20:25:31;;;;;;;26.98;10.70;;;;;;;;;;8410464;28;20131;-85
2023/01/14 20:29:35;;;;;;;22.33;11.05;;;;;;;;;;8388504;28;20056;-86
2023/01/14 20:33:38;;;;;;;24.20;10.70;;;;;;;;;;8396402;28;20085;-86
2023/01/14 20:37:43;;;;;;;24.63;9.30;;;;;;;;;;8408533;28;20059;-84
2023/01/14 20:46:15;;;;;;;26.67;11.68;;;;;;;;;;8394827;28;20051;-85
2023/01/14 20:50:19;;;;;;;25.85;11.63;;;;;;;;;;8394961;28;20494;-86
2023/01/14 20:54:24;;;;;;;22.48;9.60;;;;;;;;;;8394656;28;20195;-86
2023/01/14 20:59:22;;;;;;;26.80;12.35;;;;;;;;;;8395483;28;20079;-85
2023/01/14 21:02:54;;;;;;;17.58;8.18;;;;;;;;;;8394340;28;20089;-85
2023/01/14 21:06:58;;;;;;;29.65;12.68;;;;;;;;;;8406614;28;20584;-86
2023/01/14 21:11:07;;;;;;;22.50;11.57;;;;;;;;;;8394921;28;20041;-86
2023/01/14 21:23:53;;;;;;;26.73;12.07;;;;;;;;;;8400617;28;20137;-87
2023/01/14 21:28:01;;;;;;;33.08;12.25;;;;;;;;;;8433544;28;20131;-86
2023/01/14 21:32:03;;;;;;;27.38;12.77;;;;;;;;;;8420092;28;20487;-85
2023/01/14 21:36:10;;;;;;;26.60;13.38;;;;;;;;;;8421158;28;20505;-86
2023/01/14 21:40:16;;;;;;;33.08;14.23;;;;;;;;;;8399987;28;20066;-86
2023/01/14 21:44:20;;;;;;;21.50;6.57;;;;;;;;;;8399902;28;20476;-86
2023/01/14 21:48:23;;;;;;;30.60;13.93;;;;;;;;;;8413360;28;20483;-86
2023/01/14 21:52:27;;;;;;;19.60;8.93;;;;;;;;;;8399543;28;20468;-86
2023/01/14 21:56:30;;;;;;;27.90;11.73;;;;;;;;;;8399497;28;20445;-86
2023/01/14 22:00:35;;;;;;;30.98;12.77;;;;;;;;;;8399452;28;20131;-86
2023/01/14 22:04:38;;;;;;;40.28;16.13;;;;;;;;;;8400307;28;20403;-86
2023/01/14 22:08:41;;;;;;;20.90;10.30;;;;;;;;;;8394956;28;20534;-86
2023/01/14 22:12:44;;;;;;;55.28;18.35;;;;;;;;;;8398784;28;20111;-86
2023/01/14 22:16:48;;;;;;;45.65;17.42;;;;;;;;;;8398835;28;20093;-86
2023/01/14 22:20:57;;;;;;;26.20;12.85;;;;;;;;;;8432465;28;20066;-86
2023/01/14 22:25:01;;;;;;;24.38;11.80;;;;;;;;;;8404832;28;20067;-86
2023/01/14 22:29:05;;;;;;;25.00;10.82;;;;;;;;;;8412021;28;20485;-85
2023/01/14 22:33:09;;;;;;;21.92;10.52;;;;;;;;;;8398625;28;20044;-86
2023/01/14 22:37:12;;;;;;;21.50;11.07;;;;;;;;;;8397701;28;20405;-86
2023/01/14 22:41:15;;;;;;;19.48;8.45;;;;;;;;;;8398727;28;20123;-85
2023/01/14 22:45:18;;;;;;;17.10;8.27;;;;;;;;;;8423846;28;20119;-85
2023/01/14 22:49:22;;;;;;;30.25;12.00;;;;;;;;;;8397694;28;20048;-85
2023/01/14 22:53:25;;;;;;;23.95;9.68;;;;;;;;;;8397709;28;20568;-85
2023/01/14 22:57:28;;;;;;;25.77;11.82;;;;;;;;;;8397660;28;20066;-85
2023/01/14 23:01:31;;;;;;;17.35;8.02;;;;;;;;;;8410930;28;20064;-85
2023/01/14 23:05:36;;;;;;;20.20;8.75;;;;;;;;;;8397357;28;20044;-85
2023/01/14 23:09:39;;;;;;;16.48;8.55;;;;;;;;;;8404721;28;20040;-85
2023/01/14 23:13:43;;;;;;;12.93;5.22;;;;;;;;;;8402677;28;20070;-85
2023/01/14 23:17:46;;;;;;;15.55;8.13;;;;;;;;;;8397351;28;20395;-86
2023/01/14 23:26:10;;;;;;;20.10;8.47;;;;;;;;;;8421328;28;20063;-86
2023/01/14 23:30:13;;;;;;;13.63;6.90;;;;;;;;;;8398707;28;20060;-86
2023/01/14 23:34:16;;;;;;;18.50;8.43;;;;;;;;;;8406779;28;20043;-86
2023/01/14 23:38:20;;;;;;;18.38;7.50;;;;;;;;;;8399307;28;20036;-85
2023/01/14 23:42:23;;;;;;;12.85;5.47;;;;;;;;;;8396685;28;20618;-83
2023/01/14 23:46:27;;;;;;;13.38;5.68;;;;;;;;;;8398789;28;20040;-86
2023/01/14 23:50:30;;;;;;;7.70;4.40;;;;;;;;;;8418799;28;20048;-86
2023/01/14 23:54:35;;;;;;;16.50;7.60;;;;;;;;;;8395808;28;20488;-83
2023/01/14 23:58:39;;;;;;;11.68;6.18;;;;;;;;;;8420451;28;20123;-85
